»·PEaware :: DAL172 KMTJ-KPHX

DAL172 :: KMTJ-KPHX

FLIGHT INFORMATION

Flight Status: Arrived
Operator:
Delta Air Lines
More flights by this operator :: More flights under this callsign
Pilot: Tim M. (868)
Aircraft: BOEING 737-700
(B737)
More flights by this aircraft type
Origin: KMTJ Montrose Regl
United States
Destination: KPHX Phoenix Sky Harbor Intl
United States
More flights between these airports :: More routes between these airports
Route: MTJ2 MTJ DCT RSK DCT GUP EAGUL6
File this flight plan on PilotEdge
Remarks:
Altitude:
(Current/Filed)
40,000ft
Speed:
(Current/Filed)
438kts
Departed: 22-Aug-20 03:22 PM
Arrived: 22-Aug-20 04:27 PM
Distance/Time
Traveled:
364nm/1:05
Distance/Time
To Go:
Arrived

Flight Plot

Page will automatically refresh every two minutes.

Flight plan parsing failed; only flown route is shown


Map Options




Map Legend


Flown Route
Filed Route
Departure Airport
Arrival Airport
Navaid (VOR, NDB)
Fix

Horizontal Profiles

Position Reports

Time Latitude Longitude Heading Altitude Ground
Speed
22-Aug-20 14:53 38.492708 -107.889613 227 5767ft 0kts
22-Aug-20 14:54 38.492708 -107.889613 227 5767ft 0kts
22-Aug-20 14:55 38.492708 -107.889613 227 5767ft 0kts
22-Aug-20 14:56 38.492708 -107.889613 227 5767ft 0kts
22-Aug-20 14:57 38.492708 -107.889613 227 5767ft 0kts
22-Aug-20 14:58 38.492708 -107.889613 227 5767ft 0kts
22-Aug-20 14:59 38.492708 -107.889613 227 5767ft 0kts
22-Aug-20 15:00 38.492708 -107.889613 227 5767ft 0kts
22-Aug-20 15:01 38.492708 -107.889613 227 5767ft 0kts
22-Aug-20 15:02 38.492708 -107.889613 227 5767ft 0kts
22-Aug-20 15:03 38.492708 -107.889613 227 5767ft 0kts
22-Aug-20 15:04 38.492708 -107.889613 227 5767ft 0kts
22-Aug-20 15:05 38.492708 -107.889613 227 5767ft 0kts
22-Aug-20 15:06 38.492708 -107.889613 227 5767ft 0kts
22-Aug-20 15:07 38.492708 -107.889613 227 5767ft 0kts
22-Aug-20 15:08 38.492708 -107.889613 227 5767ft 0kts
22-Aug-20 15:09 38.492708 -107.889613 227 5767ft 0kts
22-Aug-20 15:10 38.492708 -107.889613 227 5767ft 0kts
22-Aug-20 15:11 38.492708 -107.889613 227 5767ft 0kts
22-Aug-20 15:12 38.492708 -107.889613 227 5767ft 0kts
22-Aug-20 15:13 38.492708 -107.889613 227 5767ft 0kts
22-Aug-20 15:14 38.492708 -107.889613 227 5767ft 0kts
22-Aug-20 15:15 38.493131 -107.889347 178 5767ft 2kts
22-Aug-20 15:17 38.493168 -107.889348 173 5767ft 0kts
22-Aug-20 15:18 38.493166 -107.889348 173 5767ft 0kts
22-Aug-20 15:19 38.493164 -107.889348 173 5767ft 0kts
22-Aug-20 15:20 38.493268 -107.888375 50 5767ft 0kts
22-Aug-20 15:21 38.494438 -107.888721 320 5767ft 27kts
22-Aug-20 15:22 38.521186 -107.917416 316 6612ft 173kts
22-Aug-20 15:23 38.556903 -107.962976 344 8457ft 223kts
22-Aug-20 15:24 38.597176 -107.912781 97 10746ft 246kts
22-Aug-20 15:25 38.536456 -107.868302 194 12461ft 315kts
22-Aug-20 15:26 38.446143 -107.909661 188 14846ft 364kts
22-Aug-20 15:27 38.342852 -107.919524 184 18232ft 379kts
22-Aug-20 15:28 38.235396 -107.930875 185 21349ft 396kts
22-Aug-20 15:29 38.123316 -107.943599 185 23350ft 410kts
22-Aug-20 15:30 38.009719 -107.956650 185 23455ft 408kts
22-Aug-20 15:31 37.897068 -107.969554 185 23483ft 409kts
22-Aug-20 15:32 37.782597 -107.982626 186 25660ft 420kts
22-Aug-20 15:33 37.664280 -107.996109 186 27885ft 433kts
22-Aug-20 15:34 37.542138 -108.009959 186 29789ft 447kts
22-Aug-20 15:34 37.437847 -108.021758 186 31249ft 455kts
22-Aug-20 15:36 37.288105 -108.038637 187 32895ft 470kts
22-Aug-20 15:37 37.157698 -108.053294 187 34614ft 470kts
22-Aug-20 15:37 37.049696 -108.065417 187 36030ft 466kts
22-Aug-20 15:39 36.899234 -108.082210 188 37753ft 463kts
22-Aug-20 15:39 36.792615 -108.094280 190 38818ft 460kts
22-Aug-20 15:40 36.673901 -108.144605 209 39905ft 450kts
22-Aug-20 15:42 36.542318 -108.225648 210 40151ft 449kts
22-Aug-20 15:42 36.448929 -108.282922 210 40157ft 450kts
22-Aug-20 15:43 36.336855 -108.351972 210 40171ft 450kts
22-Aug-20 15:44 36.224264 -108.420832 210 40188ft 450kts
22-Aug-20 15:45 36.112017 -108.489211 210 40205ft 450kts
22-Aug-20 15:46 35.999526 -108.557515 210 40221ft 450kts
22-Aug-20 15:47 35.886863 -108.625707 210 40235ft 450kts
22-Aug-20 15:48 35.774610 -108.693440 210 40245ft 449kts
22-Aug-20 15:49 35.662134 -108.761280 209 40248ft 449kts
22-Aug-20 15:50 35.549966 -108.828411 209 40249ft 448kts
22-Aug-20 15:51 35.447335 -108.910821 227 40249ft 438kts
22-Aug-20 15:52 35.363092 -109.018484 230 40244ft 436kts
22-Aug-20 15:53 35.279685 -109.125942 230 40231ft 436kts
22-Aug-20 15:54 35.196102 -109.233930 230 40218ft 435kts
22-Aug-20 15:55 35.112680 -109.341207 230 40200ft 435kts
22-Aug-20 15:56 35.029521 -109.447990 230 40185ft 435kts
22-Aug-20 15:57 34.945769 -109.554719 229 40160ft 435kts
22-Aug-20 15:58 34.862038 -109.660941 229 40154ft 434kts
22-Aug-20 15:59 34.778351 -109.767501 229 40154ft 434kts
22-Aug-20 16:00 34.701714 -109.879617 243 40161ft 428kts
22-Aug-20 16:01 34.650706 -110.009754 248 40167ft 427kts
22-Aug-20 16:02 34.602112 -110.140927 248 39392ft 424kts
22-Aug-20 16:03 34.552873 -110.271983 247 36589ft 429kts
22-Aug-20 16:04 34.502759 -110.404623 246 33572ft 436kts
22-Aug-20 16:05 34.452350 -110.538593 246 31322ft 440kts
22-Aug-20 16:06 34.401512 -110.671916 245 29130ft 430kts
22-Aug-20 16:07 34.348114 -110.798788 235 26996ft 418kts
22-Aug-20 16:08 34.271790 -110.903344 226 24874ft 414kts
22-Aug-20 16:09 34.193539 -111.003199 226 22767ft 401kts
22-Aug-20 16:10 34.119274 -111.098696 226 20795ft 375kts
22-Aug-20 16:11 34.050062 -111.187945 226 18950ft 358kts
22-Aug-20 16:12 33.982742 -111.274044 225 17335ft 351kts
22-Aug-20 16:13 33.916240 -111.358848 225 15558ft 341kts
22-Aug-20 16:14 33.847776 -111.433579 214 13976ft 319kts
22-Aug-20 16:15 33.780693 -111.490215 214 12237ft 301kts
22-Aug-20 16:16 33.715804 -111.546050 214 10818ft 272kts
22-Aug-20 16:17 33.656773 -111.596614 216 9432ft 249kts
22-Aug-20 16:18 33.601600 -111.643097 216 7967ft 238kts
22-Aug-20 16:19 33.547997 -111.687744 216 6397ft 233kts
22-Aug-20 16:20 33.495734 -111.732092 216 5159ft 228kts
22-Aug-20 16:21 33.452959 -111.784891 242 4201ft 212kts
22-Aug-20 16:22 33.441735 -111.847828 266 3451ft 178kts
22-Aug-20 16:23 33.440985 -111.900663 267 2625ft 133kts
22-Aug-20 16:24 33.440917 -111.944324 267 1952ft 129kts
22-Aug-20 16:25 33.440916 -111.987682 267 1239ft 132kts
22-Aug-20 16:26 33.440690 -112.013090 244 1143ft 16kts
22-Aug-20 16:27 33.439384 -112.014462 195 1143ft 0kts
22-Aug-20 16:28 33.438981 -112.011094 92 1143ft 19kts
22-Aug-20 16:29 33.438970 -112.005055 97 1143ft 14kts
22-Aug-20 16:30 33.434344 -112.004677 183 1143ft 17kts
22-Aug-20 16:31 33.432843 -112.007548 269 1143ft 11kts
22-Aug-20 16:32 33.433306 -112.009766 91 1143ft 3kts
22-Aug-20 16:33 33.433285 -112.009470 100 1143ft 0kts
22-Aug-20 16:34 33.433285 -112.009469 100 1143ft 0kts
22-Aug-20 16:35 33.433285 -112.009483 99 1143ft 0kts
22-Aug-20 16:36 33.433285 -112.009483 99 1143ft 0kts
22-Aug-20 16:37 33.433285 -112.009483 99 1143ft 0kts
22-Aug-20 16:38 33.433285 -112.009483 99 1143ft 0kts
22-Aug-20 16:39 33.433285 -112.009483 99 1143ft 0kts
22-Aug-20 16:40 33.433285 -112.009483 99 1143ft 0kts

Navigation Log

Ident Type
Flight plan parsing failed, navigation log unavailable